createdAt,value
2023-09-03T00:00:08.513Z,8.63
2023-09-03T00:02:35.095Z,7.88
2023-09-03T00:05:01.679Z,9.05
2023-09-03T00:07:28.320Z,8.13
2023-09-03T00:09:54.903Z,10.35
2023-09-03T00:12:21.489Z,8.23
2023-09-03T00:14:48.256Z,9.27
2023-09-03T00:17:15.860Z,8.38
2023-09-03T00:19:49.338Z,7.75
2023-09-03T00:22:15.956Z,9.20
2023-09-03T00:24:42.456Z,6.13
2023-09-03T00:27:09.157Z,8.50
2023-09-03T00:29:36.831Z,7.30
2023-09-03T00:32:04.448Z,10.15
2023-09-03T00:34:33.758Z,8.13
2023-09-03T00:37:00.681Z,8.05
2023-09-03T00:39:27.325Z,8.20
2023-09-03T00:41:54.347Z,10.57
2023-09-03T00:44:23.204Z,10.05
2023-09-03T00:46:50.054Z,9.75
2023-09-03T00:49:21.370Z,9.93
2023-09-03T00:51:49.656Z,8.57
2023-09-03T00:54:16.316Z,9.05
2023-09-03T00:56:45.776Z,8.77
2023-09-03T00:59:12.373Z,9.38
2023-09-03T01:01:39.924Z,8.63
2023-09-03T01:04:06.576Z,8.75
2023-09-03T01:06:46.526Z,7.70
2023-09-03T01:09:13.183Z,8.07
2023-09-03T01:11:44.858Z,8.57
2023-09-03T01:14:24.712Z,7.50
2023-09-03T01:17:19.960Z,8.75
2023-09-03T01:19:58.357Z,9.35
2023-09-03T01:22:55.289Z,8.75
2023-09-03T01:25:46.970Z,9.75
2023-09-03T01:28:31.586Z,11.88
2023-09-03T01:31:02.988Z,12.60
2023-09-03T01:33:31.887Z,12.68
2023-09-03T01:36:12.680Z,10.50
2023-09-03T01:38:40.696Z,11.65
2023-09-03T01:41:08.688Z,10.32
2023-09-03T01:43:38.829Z,13.07
2023-09-03T01:46:08.575Z,12.55
2023-09-03T01:48:50.174Z,11.52
2023-09-03T01:51:25.778Z,10.88
2023-09-03T01:54:03.902Z,15.02
2023-09-03T01:56:35.989Z,12.18
2023-09-03T01:59:12.891Z,11.02
2023-09-03T02:01:39.640Z,12.13
2023-09-03T02:04:06.308Z,13.13
2023-09-03T02:06:32.827Z,10.75
2023-09-03T02:09:02.275Z,12.38
2023-09-03T02:11:28.763Z,14.38
2023-09-03T02:13:55.437Z,11.73
2023-09-03T02:16:22.664Z,12.40
2023-09-03T02:18:49.179Z,12.15
2023-09-03T02:21:28.231Z,13.02
2023-09-03T02:23:54.815Z,10.90
2023-09-03T02:26:21.331Z,12.50
2023-09-03T02:28:47.885Z,12.48
2023-09-03T02:31:14.494Z,13.57
2023-09-03T02:33:41.030Z,13.75
2023-09-03T02:36:07.706Z,12.10
2023-09-03T02:38:36.834Z,13.27
2023-09-03T02:41:03.418Z,12.00
2023-09-03T02:43:30.354Z,10.43
2023-09-03T02:45:56.941Z,11.13
2023-09-03T02:48:23.653Z,11.77
2023-09-03T02:50:50.250Z,11.23
2023-09-03T02:53:16.741Z,10.52
2023-09-03T02:55:48.902Z,10.70
2023-09-03T02:58:15.445Z,11.52
2023-09-03T03:00:41.997Z,10.68
2023-09-03T03:03:08.655Z,10.32
2023-09-03T03:05:35.565Z,10.25
2023-09-03T03:08:04.197Z,11.15
2023-09-03T03:10:30.891Z,10.32
2023-09-03T03:12:57.385Z,11.30
2023-09-03T03:15:23.919Z,11.93
2023-09-03T03:17:50.513Z,11.55
2023-09-03T03:20:17.283Z,10.63
2023-09-03T03:22:44.739Z,15.35
2023-09-03T03:25:23.791Z,15.32
2023-09-03T03:27:50.285Z,12.40
2023-09-03T03:30:16.809Z,14.70
2023-09-03T03:32:43.390Z,13.98
2023-09-03T03:35:10.275Z,12.07
2023-09-03T03:37:36.895Z,12.45
2023-09-03T03:40:04.986Z,10.82
2023-09-03T03:42:32.207Z,14.07
2023-09-03T03:44:58.739Z,11.93
2023-09-03T03:47:25.267Z,11.95
2023-09-03T03:49:52.258Z,10.82
2023-09-03T03:52:18.970Z,12.18
2023-09-03T03:54:45.560Z,13.30
2023-09-03T03:57:12.080Z,11.05
2023-09-03T03:59:38.656Z,10.90
2023-09-03T04:02:05.275Z,10.52
2023-09-03T04:04:31.801Z,11.82
2023-09-03T04:06:58.419Z,10.07
2023-09-03T04:09:24.906Z,10.93
2023-09-03T04:11:51.438Z,11.40
2023-09-03T04:14:17.993Z,10.88
2023-09-03T04:16:44.579Z,11.20
2023-09-03T04:19:12.793Z,9.80
2023-09-03T04:21:39.413Z,10.38
2023-09-03T04:24:07.649Z,9.43
2023-09-03T04:26:34.251Z,12.38
2023-09-03T04:29:00.890Z,10.23
2023-09-03T04:31:27.464Z,15.02
2023-09-03T04:33:54.139Z,9.65
2023-09-03T04:36:20.693Z,9.93
2023-09-03T04:38:47.251Z,14.05
2023-09-03T04:41:13.788Z,12.27
2023-09-03T04:43:47.205Z,8.13
2023-09-03T04:46:13.753Z,11.43
2023-09-03T04:48:40.417Z,10.55
2023-09-03T04:51:08.622Z,8.07
2023-09-03T04:53:35.359Z,9.45
2023-09-03T04:56:03.562Z,14.38
2023-09-03T04:58:30.244Z,19.05
2023-09-03T05:00:56.747Z,11.82
2023-09-03T05:03:23.404Z,12.30
2023-09-03T05:05:49.914Z,8.98
2023-09-03T05:08:16.432Z,10.88
2023-09-03T05:10:43.060Z,9.57
2023-09-03T05:13:09.611Z,11.75
2023-09-03T05:15:37.891Z,10.40
2023-09-03T05:18:04.630Z,10.02
2023-09-03T05:20:31.268Z,9.20
2023-09-03T05:22:57.765Z,10.68
2023-09-03T05:25:24.267Z,8.40
2023-09-03T05:27:50.875Z,7.72
2023-09-03T05:30:17.454Z,8.05
2023-09-03T05:32:44.113Z,9.63
2023-09-03T05:35:11.082Z,10.02
2023-09-03T05:37:37.804Z,9.55
2023-09-03T05:40:05.961Z,9.38
2023-09-03T05:42:32.691Z,10.38
2023-09-03T05:45:02.176Z,9.00
2023-09-03T05:47:28.738Z,9.48
2023-09-03T05:49:56.474Z,9.48
2023-09-03T05:52:23.017Z,7.78
2023-09-03T05:54:49.558Z,10.00
2023-09-03T05:57:16.169Z,11.82
2023-09-03T05:59:42.693Z,12.32
2023-09-03T06:02:09.334Z,11.70
2023-09-03T06:04:35.901Z,10.82
2023-09-03T06:07:02.432Z,10.82
2023-09-03T06:09:28.992Z,13.00
2023-09-03T06:11:55.566Z,11.48
2023-09-03T06:14:22.118Z,8.02
2023-09-03T06:16:48.664Z,11.95
2023-09-03T06:19:15.626Z,12.82
2023-09-03T06:21:42.225Z,12.10
2023-09-03T06:24:09.078Z,14.60
2023-09-03T06:26:35.630Z,12.23
2023-09-03T06:29:02.149Z,12.75
2023-09-03T06:31:28.855Z,13.50
2023-09-03T06:33:55.658Z,11.93
2023-09-03T06:36:22.292Z,12.10
2023-09-03T06:38:48.833Z,13.50
2023-09-03T06:41:15.780Z,14.13
2023-09-03T06:43:42.389Z,12.88
2023-09-03T06:46:09.615Z,16.80
2023-09-03T06:48:37.428Z,13.73
2023-09-03T06:51:04.836Z,11.77
2023-09-03T06:53:31.450Z,13.18
2023-09-03T06:55:58.410Z,14.32
2023-09-03T06:58:25.043Z,13.23
2023-09-03T07:00:53.830Z,13.85
2023-09-03T07:03:22.041Z,14.40
2023-09-03T07:05:48.699Z,15.68
2023-09-03T07:08:15.360Z,14.38
2023-09-03T07:10:41.987Z,12.85
2023-09-03T07:13:09.979Z,15.27
2023-09-03T07:15:37.498Z,14.57
2023-09-03T07:18:05.668Z,11.70
2023-09-03T07:20:35.390Z,12.98
2023-09-03T07:23:01.983Z,14.65
2023-09-03T07:25:32.713Z,12.25
2023-09-03T07:27:59.301Z,14.50
2023-09-03T07:30:25.993Z,11.65
2023-09-03T07:32:52.614Z,12.52
2023-09-03T07:35:19.492Z,13.02
2023-09-03T07:37:46.182Z,11.80
2023-09-03T07:40:13.041Z,12.55
2023-09-03T07:42:39.888Z,14.80
2023-09-03T07:45:07.184Z,11.77
2023-09-03T07:47:33.895Z,12.90
2023-09-03T07:50:02.336Z,11.82
2023-09-03T07:52:29.110Z,14.05
2023-09-03T07:54:55.668Z,12.50
2023-09-03T07:57:22.419Z,12.55
2023-09-03T07:59:51.607Z,12.25
2023-09-03T08:02:18.169Z,13.25
2023-09-03T08:04:48.505Z,11.52
2023-09-03T08:07:15.017Z,11.55
2023-09-03T08:09:42.120Z,13.57
2023-09-03T08:12:08.658Z,14.88
2023-09-03T08:14:35.248Z,11.98
2023-09-03T08:17:01.746Z,14.60
2023-09-03T08:19:28.473Z,12.68
2023-09-03T08:21:55.091Z,12.85
2023-09-03T08:24:21.734Z,11.95
2023-09-03T08:26:51.191Z,12.45
2023-09-03T08:29:17.775Z,12.35
2023-09-03T08:31:44.355Z,15.80
2023-09-03T08:34:11.441Z,12.75
2023-09-03T08:36:38.039Z,13.15
2023-09-03T08:39:07.206Z,12.52
2023-09-03T08:41:42.448Z,11.68
2023-09-03T08:44:35.988Z,8.73
2023-09-03T08:47:17.525Z,9.85
2023-09-03T08:49:59.870Z,6.82
2023-09-03T08:52:29.220Z,6.90
2023-09-03T08:54:56.606Z,5.65
2023-09-03T09:00:24.831Z,6.20
2023-09-03T09:02:53.499Z,6.57
2023-09-03T09:05:31.271Z,4.90
2023-09-03T09:07:59.665Z,4.30
2023-09-03T09:10:33.296Z,5.03
2023-09-03T09:13:07.912Z,5.85
2023-09-03T09:15:40.916Z,4.93
2023-09-03T09:18:11.864Z,6.03
2023-09-03T09:20:42.594Z,6.43
2023-09-03T09:23:09.877Z,5.45
2023-09-03T09:25:37.519Z,3.70
2023-09-03T09:28:14.329Z,5.15
2023-09-03T09:30:58.202Z,4.72
2023-09-03T09:33:26.246Z,4.82
2023-09-03T09:35:54.844Z,4.82
2023-09-03T09:38:36.090Z,3.78
2023-09-03T09:41:22.332Z,3.33
2023-09-03T09:43:49.084Z,3.45
2023-09-03T09:46:29.529Z,3.20
2023-09-03T09:48:58.175Z,3.83
2023-09-03T09:51:26.301Z,3.10
2023-09-03T09:54:04.312Z,3.25
2023-09-03T09:56:37.414Z,3.03
2023-09-03T09:59:05.537Z,4.28
2023-09-03T10:01:47.540Z,3.03
2023-09-03T10:04:14.468Z,3.22
2023-09-03T10:06:42.076Z,2.42
2023-09-03T10:09:09.770Z,4.28
2023-09-03T10:11:36.543Z,3.00
2023-09-03T10:14:03.162Z,3.63
2023-09-03T10:16:33.448Z,2.92
2023-09-03T10:19:19.567Z,6.35
2023-09-03T10:22:28.504Z,5.50
2023-09-03T10:25:25.150Z,5.55
2023-09-03T10:27:58.422Z,5.47
2023-09-03T10:30:31.325Z,4.78
2023-09-03T10:32:59.163Z,3.05
2023-09-03T10:35:25.956Z,3.28
2023-09-03T10:37:52.862Z,2.85
2023-09-03T10:40:26.055Z,2.45
2023-09-03T10:42:54.702Z,2.63
2023-09-03T10:45:28.052Z,2.22
2023-09-03T10:48:05.152Z,2.10
2023-09-03T10:51:02.054Z,3.45
2023-09-03T10:53:40.645Z,2.70
2023-09-03T10:56:51.085Z,3.47
2023-09-03T10:59:17.643Z,3.65
2023-09-03T11:01:46.893Z,5.68
2023-09-03T11:04:16.306Z,4.15
2023-09-03T11:07:15.169Z,5.32
2023-09-03T11:09:41.934Z,3.97
2023-09-03T11:12:08.680Z,4.32
2023-09-03T11:14:36.079Z,4.63
2023-09-03T11:17:09.777Z,3.65
2023-09-03T11:19:42.284Z,4.10
2023-09-03T11:22:09.405Z,4.22
2023-09-03T11:24:59.251Z,4.13
2023-09-03T11:27:25.894Z,3.33
2023-09-03T11:30:04.341Z,2.85
2023-09-03T11:32:38.517Z,2.28
2023-09-03T11:35:08.358Z,3.03
2023-09-03T11:37:36.761Z,3.55
2023-09-03T11:40:05.425Z,3.33
2023-09-03T11:42:33.146Z,4.03
2023-09-03T11:44:59.677Z,3.03
2023-09-03T11:47:26.295Z,2.97
2023-09-03T11:49:53.030Z,2.47
2023-09-03T11:52:19.727Z,4.75
2023-09-03T11:54:46.613Z,5.35
2023-09-03T11:57:16.475Z,6.25
2023-09-03T11:59:43.687Z,3.65
2023-09-03T12:02:30.408Z,4.88
2023-09-03T12:04:57.476Z,4.32
2023-09-03T12:07:24.083Z,3.88
